sensor_id;sensor_type;location;lat;lon;timestamp;P1;durP1;ratioP1;P2;durP2;ratioP2
10586;SDS011;5341;47.606;7.576;2023-12-20T00:01:23;9.98;;;7.90;;
10586;SDS011;5341;47.606;7.576;2023-12-20T00:03:50;8.90;;;7.78;;
10586;SDS011;5341;47.606;7.576;2023-12-20T00:06:20;9.43;;;8.43;;
10586;SDS011;5341;47.606;7.576;2023-12-20T00:08:47;9.05;;;7.50;;
10586;SDS011;5341;47.606;7.576;2023-12-20T00:11:14;10.50;;;8.65;;
10586;SDS011;5341;47.606;7.576;2023-12-20T00:13:42;11.07;;;8.25;;
10586;SDS011;5341;47.606;7.576;2023-12-20T00:16:09;9.05;;;8.05;;
10586;SDS011;5341;47.606;7.576;2023-12-20T00:18:37;10.82;;;8.70;;
10586;SDS011;5341;47.606;7.576;2023-12-20T00:21:04;12.10;;;9.23;;
10586;SDS011;5341;47.606;7.576;2023-12-20T00:23:33;11.65;;;9.23;;
10586;SDS011;5341;47.606;7.576;2023-12-20T00:26:00;10.88;;;9.35;;
10586;SDS011;5341;47.606;7.576;2023-12-20T00:28:28;10.68;;;8.95;;
10586;SDS011;5341;47.606;7.576;2023-12-20T00:30:55;9.95;;;8.57;;
10586;SDS011;5341;47.606;7.576;2023-12-20T00:33:22;11.70;;;10.32;;
10586;SDS011;5341;47.606;7.576;2023-12-20T00:35:50;13.40;;;10.80;;
10586;SDS011;5341;47.606;7.576;2023-12-20T00:38:17;12.63;;;10.05;;
10586;SDS011;5341;47.606;7.576;2023-12-20T00:40:46;11.95;;;9.93;;
10586;SDS011;5341;47.606;7.576;2023-12-20T00:43:15;14.02;;;10.73;;
10586;SDS011;5341;47.606;7.576;2023-12-20T00:45:42;13.15;;;10.43;;
10586;SDS011;5341;47.606;7.576;2023-12-20T00:48:09;14.52;;;11.02;;
10586;SDS011;5341;47.606;7.576;2023-12-20T00:50:37;14.38;;;10.65;;
10586;SDS011;5341;47.606;7.576;2023-12-20T00:53:04;14.18;;;11.00;;
10586;SDS011;5341;47.606;7.576;2023-12-20T00:55:31;12.00;;;9.88;;
10586;SDS011;5341;47.606;7.576;2023-12-20T00:58:00;13.25;;;10.45;;
10586;SDS011;5341;47.606;7.576;2023-12-20T01:00:29;12.65;;;10.57;;
10586;SDS011;5341;47.606;7.576;2023-12-20T01:02:56;11.15;;;9.88;;
10586;SDS011;5341;47.606;7.576;2023-12-20T01:05:23;11.80;;;9.60;;
10586;SDS011;5341;47.606;7.576;2023-12-20T01:07:54;12.70;;;10.20;;
10586;SDS011;5341;47.606;7.576;2023-12-20T01:10:21;10.80;;;9.30;;
10586;SDS011;5341;47.606;7.576;2023-12-20T01:12:49;11.88;;;9.82;;
10586;SDS011;5341;47.606;7.576;2023-12-20T01:15:19;11.35;;;9.52;;
10586;SDS011;5341;47.606;7.576;2023-12-20T01:17:50;11.10;;;9.55;;
10586;SDS011;5341;47.606;7.576;2023-12-20T01:20:18;11.35;;;9.20;;
10586;SDS011;5341;47.606;7.576;2023-12-20T01:22:46;10.48;;;9.40;;
10586;SDS011;5341;47.606;7.576;2023-12-20T01:25:14;10.65;;;9.27;;
10586;SDS011;5341;47.606;7.576;2023-12-20T01:27:41;10.38;;;9.27;;
10586;SDS011;5341;47.606;7.576;2023-12-20T01:30:09;9.27;;;8.02;;
10586;SDS011;5341;47.606;7.576;2023-12-20T01:32:39;11.48;;;8.98;;
10586;SDS011;5341;47.606;7.576;2023-12-20T01:35:07;11.63;;;9.80;;
10586;SDS011;5341;47.606;7.576;2023-12-20T01:37:35;11.38;;;9.05;;
10586;SDS011;5341;47.606;7.576;2023-12-20T01:40:01;10.15;;;9.05;;
10586;SDS011;5341;47.606;7.576;2023-12-20T01:42:29;11.75;;;9.77;;
10586;SDS011;5341;47.606;7.576;2023-12-20T01:44:56;10.45;;;8.95;;
10586;SDS011;5341;47.606;7.576;2023-12-20T01:47:24;10.23;;;9.23;;
10586;SDS011;5341;47.606;7.576;2023-12-20T01:49:54;12.38;;;10.40;;
10586;SDS011;5341;47.606;7.576;2023-12-20T01:52:23;12.48;;;10.02;;
10586;SDS011;5341;47.606;7.576;2023-12-20T01:54:54;11.23;;;9.20;;
10586;SDS011;5341;47.606;7.576;2023-12-20T01:57:28;11.55;;;8.80;;
10586;SDS011;5341;47.606;7.576;2023-12-20T01:59:56;10.82;;;9.07;;
10586;SDS011;5341;47.606;7.576;2023-12-20T02:02:24;11.02;;;9.60;;
10586;SDS011;5341;47.606;7.576;2023-12-20T02:04:59;12.43;;;10.35;;
10586;SDS011;5341;47.606;7.576;2023-12-20T02:07:27;14.27;;;11.60;;
10586;SDS011;5341;47.606;7.576;2023-12-20T02:09:58;12.82;;;11.30;;
10586;SDS011;5341;47.606;7.576;2023-12-20T02:12:27;13.77;;;10.20;;
10586;SDS011;5341;47.606;7.576;2023-12-20T02:14:55;12.85;;;10.55;;
10586;SDS011;5341;47.606;7.576;2023-12-20T02:17:24;14.38;;;11.13;;
10586;SDS011;5341;47.606;7.576;2023-12-20T02:19:53;13.75;;;10.70;;
10586;SDS011;5341;47.606;7.576;2023-12-20T02:22:22;13.13;;;10.63;;
10586;SDS011;5341;47.606;7.576;2023-12-20T02:24:52;11.35;;;9.98;;
10586;SDS011;5341;47.606;7.576;2023-12-20T02:27:20;12.70;;;10.48;;
10586;SDS011;5341;47.606;7.576;2023-12-20T02:29:50;11.43;;;9.80;;
10586;SDS011;5341;47.606;7.576;2023-12-20T02:32:19;11.10;;;9.75;;
10586;SDS011;5341;47.606;7.576;2023-12-20T02:34:48;12.57;;;10.15;;
10586;SDS011;5341;47.606;7.576;2023-12-20T02:37:16;11.45;;;9.88;;
10586;SDS011;5341;47.606;7.576;2023-12-20T02:39:46;13.77;;;9.60;;
10586;SDS011;5341;47.606;7.576;2023-12-20T02:42:13;11.35;;;9.43;;
10586;SDS011;5341;47.606;7.576;2023-12-20T02:44:40;10.82;;;9.48;;
10586;SDS011;5341;47.606;7.576;2023-12-20T02:47:08;10.25;;;9.13;;
10586;SDS011;5341;47.606;7.576;2023-12-20T02:49:36;11.68;;;9.65;;
10586;SDS011;5341;47.606;7.576;2023-12-20T02:52:03;11.88;;;9.98;;
10586;SDS011;5341;47.606;7.576;2023-12-20T02:54:31;11.30;;;9.65;;
10586;SDS011;5341;47.606;7.576;2023-12-20T02:57:00;10.07;;;8.55;;
10586;SDS011;5341;47.606;7.576;2023-12-20T02:59:27;9.68;;;8.63;;
10586;SDS011;5341;47.606;7.576;2023-12-20T03:01:55;10.65;;;8.85;;
10586;SDS011;5341;47.606;7.576;2023-12-20T03:04:23;9.68;;;8.68;;
10586;SDS011;5341;47.606;7.576;2023-12-20T03:06:50;9.50;;;8.45;;
10586;SDS011;5341;47.606;7.576;2023-12-20T03:09:18;10.07;;;8.63;;
10586;SDS011;5341;47.606;7.576;2023-12-20T03:11:45;9.75;;;8.30;;
10586;SDS011;5341;47.606;7.576;2023-12-20T03:14:15;8.75;;;7.85;;
10586;SDS011;5341;47.606;7.576;2023-12-20T03:16:46;8.80;;;7.90;;
10586;SDS011;5341;47.606;7.576;2023-12-20T03:19:14;8.75;;;7.85;;
10586;SDS011;5341;47.606;7.576;2023-12-20T03:21:42;11.82;;;7.68;;
10586;SDS011;5341;47.606;7.576;2023-12-20T03:24:09;8.90;;;8.00;;
10586;SDS011;5341;47.606;7.576;2023-12-20T03:26:37;7.97;;;7.18;;
10586;SDS011;5341;47.606;7.576;2023-12-20T03:29:04;8.52;;;7.18;;
10586;SDS011;5341;47.606;7.576;2023-12-20T03:31:36;8.75;;;7.88;;
10586;SDS011;5341;47.606;7.576;2023-12-20T03:34:03;8.45;;;7.07;;
10586;SDS011;5341;47.606;7.576;2023-12-20T03:36:31;8.38;;;7.47;;
10586;SDS011;5341;47.606;7.576;2023-12-20T03:38:58;9.93;;;7.18;;
10586;SDS011;5341;47.606;7.576;2023-12-20T03:41:26;7.63;;;6.85;;
10586;SDS011;5341;47.606;7.576;2023-12-20T03:43:53;7.80;;;7.00;;
10586;SDS011;5341;47.606;7.576;2023-12-20T03:46:21;8.68;;;7.35;;
10586;SDS011;5341;47.606;7.576;2023-12-20T03:48:50;8.27;;;7.13;;
10586;SDS011;5341;47.606;7.576;2023-12-20T03:51:17;8.65;;;7.35;;
10586;SDS011;5341;47.606;7.576;2023-12-20T03:53:45;7.78;;;6.95;;
10586;SDS011;5341;47.606;7.576;2023-12-20T03:56:12;8.38;;;7.03;;
10586;SDS011;5341;47.606;7.576;2023-12-20T03:58:40;8.18;;;7.00;;
10586;SDS011;5341;47.606;7.576;2023-12-20T04:01:09;7.82;;;6.85;;
10586;SDS011;5341;47.606;7.576;2023-12-20T04:03:38;7.25;;;6.50;;
10586;SDS011;5341;47.606;7.576;2023-12-20T04:06:07;8.13;;;6.28;;
10586;SDS011;5341;47.606;7.576;2023-12-20T04:08:35;7.82;;;7.00;;
10586;SDS011;5341;47.606;7.576;2023-12-20T04:11:03;7.75;;;6.47;;
10586;SDS011;5341;47.606;7.576;2023-12-20T04:13:31;7.90;;;6.53;;
10586;SDS011;5341;47.606;7.576;2023-12-20T04:16:00;7.53;;;6.75;;
10586;SDS011;5341;47.606;7.576;2023-12-20T04:18:27;8.15;;;6.60;;
10586;SDS011;5341;47.606;7.576;2023-12-20T04:20:55;7.95;;;6.65;;
10586;SDS011;5341;47.606;7.576;2023-12-20T04:23:24;8.23;;;6.22;;
10586;SDS011;5341;47.606;7.576;2023-12-20T04:25:51;7.95;;;6.60;;
10586;SDS011;5341;47.606;7.576;2023-12-20T04:28:18;6.68;;;5.97;;
10586;SDS011;5341;47.606;7.576;2023-12-20T04:30:46;8.25;;;6.68;;
10586;SDS011;5341;47.606;7.576;2023-12-20T04:33:13;7.75;;;6.90;;
10586;SDS011;5341;47.606;7.576;2023-12-20T04:35:41;7.43;;;6.43;;
10586;SDS011;5341;47.606;7.576;2023-12-20T04:38:08;7.90;;;6.70;;
10586;SDS011;5341;47.606;7.576;2023-12-20T04:40:37;8.55;;;6.22;;
10586;SDS011;5341;47.606;7.576;2023-12-20T04:43:06;7.47;;;6.60;;
10586;SDS011;5341;47.606;7.576;2023-12-20T04:45:34;8.15;;;6.95;;
10586;SDS011;5341;47.606;7.576;2023-12-20T04:48:02;7.28;;;6.00;;
10586;SDS011;5341;47.606;7.576;2023-12-20T04:50:31;8.30;;;6.60;;
10586;SDS011;5341;47.606;7.576;2023-12-20T04:52:58;8.65;;;6.20;;
10586;SDS011;5341;47.606;7.576;2023-12-20T04:55:26;6.68;;;6.00;;
10586;SDS011;5341;47.606;7.576;2023-12-20T04:57:55;6.18;;;5.55;;
10586;SDS011;5341;47.606;7.576;2023-12-20T05:00:23;7.50;;;6.20;;
10586;SDS011;5341;47.606;7.576;2023-12-20T05:02:50;7.18;;;5.45;;
10586;SDS011;5341;47.606;7.576;2023-12-20T05:05:18;6.32;;;5.55;;
10586;SDS011;5341;47.606;7.576;2023-12-20T05:07:45;6.72;;;6.03;;
10586;SDS011;5341;47.606;7.576;2023-12-20T05:10:13;6.90;;;6.20;;
10586;SDS011;5341;47.606;7.576;2023-12-20T05:12:40;7.38;;;6.25;;
10586;SDS011;5341;47.606;7.576;2023-12-20T05:15:09;7.05;;;5.97;;
10586;SDS011;5341;47.606;7.576;2023-12-20T05:17:37;6.60;;;5.85;;
10586;SDS011;5341;47.606;7.576;2023-12-20T05:20:06;6.30;;;5.35;;
10586;SDS011;5341;47.606;7.576;2023-12-20T05:22:34;6.30;;;5.70;;
10586;SDS011;5341;47.606;7.576;2023-12-20T05:25:02;6.35;;;5.38;;
10586;SDS011;5341;47.606;7.576;2023-12-20T05:27:30;7.93;;;5.90;;
10586;SDS011;5341;47.606;7.576;2023-12-20T05:29:57;7.20;;;5.32;;
10586;SDS011;5341;47.606;7.576;2023-12-20T05:32:26;6.72;;;5.38;;
10586;SDS011;5341;47.606;7.576;2023-12-20T05:34:54;6.22;;;5.63;;
10586;SDS011;5341;47.606;7.576;2023-12-20T05:37:21;6.10;;;5.50;;
10586;SDS011;5341;47.606;7.576;2023-12-20T05:39:48;6.43;;;5.68;;
10586;SDS011;5341;47.606;7.576;2023-12-20T05:42:16;6.72;;;5.40;;
10586;SDS011;5341;47.606;7.576;2023-12-20T05:44:43;5.55;;;5.05;;
10586;SDS011;5341;47.606;7.576;2023-12-20T05:47:11;5.90;;;5.30;;
10586;SDS011;5341;47.606;7.576;2023-12-20T05:49:40;6.25;;;5.55;;
10586;SDS011;5341;47.606;7.576;2023-12-20T05:52:07;5.53;;;4.90;;
10586;SDS011;5341;47.606;7.576;2023-12-20T05:54:35;6.55;;;5.57;;
10586;SDS011;5341;47.606;7.576;2023-12-20T05:57:02;5.07;;;4.60;;
10586;SDS011;5341;47.606;7.576;2023-12-20T05:59:30;5.20;;;4.70;;
10586;SDS011;5341;47.606;7.576;2023-12-20T06:01:58;4.10;;;3.65;;
10586;SDS011;5341;47.606;7.576;2023-12-20T06:04:25;3.33;;;2.80;;
10586;SDS011;5341;47.606;7.576;2023-12-20T06:06:54;3.50;;;3.20;;
10586;SDS011;5341;47.606;7.576;2023-12-20T06:09:22;3.42;;;3.13;;
10586;SDS011;5341;47.606;7.576;2023-12-20T06:11:49;4.15;;;2.80;;
10586;SDS011;5341;47.606;7.576;2023-12-20T06:14:17;3.38;;;2.20;;
10586;SDS011;5341;47.606;7.576;2023-12-20T06:16:45;2.45;;;2.17;;
10586;SDS011;5341;47.606;7.576;2023-12-20T06:19:12;2.20;;;2.00;;
10586;SDS011;5341;47.606;7.576;2023-12-20T06:21:40;2.63;;;1.90;;
10586;SDS011;5341;47.606;7.576;2023-12-20T06:24:10;1.73;;;1.40;;
10586;SDS011;5341;47.606;7.576;2023-12-20T06:26:37;1.50;;;1.30;;
10586;SDS011;5341;47.606;7.576;2023-12-20T06:29:05;1.50;;;1.40;;
10586;SDS011;5341;47.606;7.576;2023-12-20T06:31:33;1.48;;;1.30;;
10586;SDS011;5341;47.606;7.576;2023-12-20T06:34:02;1.38;;;1.27;;
10586;SDS011;5341;47.606;7.576;2023-12-20T06:36:29;1.50;;;1.40;;
10586;SDS011;5341;47.606;7.576;2023-12-20T06:38:57;2.05;;;1.52;;
10586;SDS011;5341;47.606;7.576;2023-12-20T06:41:26;2.03;;;1.50;;
10586;SDS011;5341;47.606;7.576;2023-12-20T06:43:54;1.20;;;1.10;;
10586;SDS011;5341;47.606;7.576;2023-12-20T06:46:21;2.00;;;1.33;;
10586;SDS011;5341;47.606;7.576;2023-12-20T06:48:48;1.20;;;1.10;;
10586;SDS011;5341;47.606;7.576;2023-12-20T06:51:16;1.40;;;1.30;;
10586;SDS011;5341;47.606;7.576;2023-12-20T06:53:45;1.92;;;1.40;;
10586;SDS011;5341;47.606;7.576;2023-12-20T06:56:12;1.55;;;1.20;;
10586;SDS011;5341;47.606;7.576;2023-12-20T06:58:42;1.40;;;1.30;;
10586;SDS011;5341;47.606;7.576;2023-12-20T07:01:11;1.77;;;1.40;;
10586;SDS011;5341;47.606;7.576;2023-12-20T07:03:38;1.58;;;1.40;;
10586;SDS011;5341;47.606;7.576;2023-12-20T07:06:06;1.92;;;1.35;;
10586;SDS011;5341;47.606;7.576;2023-12-20T07:08:34;1.23;;;1.13;;
10586;SDS011;5341;47.606;7.576;2023-12-20T07:11:01;1.40;;;1.30;;
10586;SDS011;5341;47.606;7.576;2023-12-20T07:13:29;1.50;;;1.40;;
10586;SDS011;5341;47.606;7.576;2023-12-20T07:15:58;1.40;;;1.30;;
10586;SDS011;5341;47.606;7.576;2023-12-20T07:18:26;1.50;;;1.40;;
10586;SDS011;5341;47.606;7.576;2023-12-20T07:20:53;1.42;;;1.30;;
10586;SDS011;5341;47.606;7.576;2023-12-20T07:23:21;1.40;;;1.30;;
10586;SDS011;5341;47.606;7.576;2023-12-20T07:25:48;1.63;;;1.40;;
10586;SDS011;5341;47.606;7.576;2023-12-20T07:28:15;1.50;;;1.40;;
10586;SDS011;5341;47.606;7.576;2023-12-20T07:30:43;1.60;;;1.50;;
10586;SDS011;5341;47.606;7.576;2023-12-20T07:33:12;1.40;;;1.30;;
10586;SDS011;5341;47.606;7.576;2023-12-20T07:35:39;2.78;;;1.60;;
10586;SDS011;5341;47.606;7.576;2023-12-20T07:38:06;1.42;;;1.33;;
10586;SDS011;5341;47.606;7.576;2023-12-20T07:40:34;1.63;;;1.52;;
10586;SDS011;5341;47.606;7.576;2023-12-20T07:43:02;1.58;;;1.40;;
10586;SDS011;5341;47.606;7.576;2023-12-20T07:45:30;1.65;;;1.55;;
10586;SDS011;5341;47.606;7.576;2023-12-20T07:47:57;1.85;;;1.70;;
10586;SDS011;5341;47.606;7.576;2023-12-20T07:50:27;1.80;;;1.70;;
10586;SDS011;5341;47.606;7.576;2023-12-20T07:52:54;2.05;;;1.75;;
10586;SDS011;5341;47.606;7.576;2023-12-20T07:55:21;1.73;;;1.63;;
10586;SDS011;5341;47.606;7.576;2023-12-20T07:57:49;3.35;;;1.73;;
10586;SDS011;5341;47.606;7.576;2023-12-20T08:00:16;1.80;;;1.70;;
10586;SDS011;5341;47.606;7.576;2023-12-20T08:02:44;1.67;;;1.58;;
10586;SDS011;5341;47.606;7.576;2023-12-20T08:05:12;1.77;;;1.67;;
10586;SDS011;5341;47.606;7.576;2023-12-20T08:07:42;1.90;;;1.80;;
10586;SDS011;5341;47.606;7.576;2023-12-20T08:10:09;1.60;;;1.50;;
10586;SDS011;5341;47.606;7.576;2023-12-20T08:12:38;1.55;;;1.40;;
10586;SDS011;5341;47.606;7.576;2023-12-20T08:15:06;1.60;;;1.50;;
10586;SDS011;5341;47.606;7.576;2023-12-20T08:17:34;1.85;;;1.75;;
10586;SDS011;5341;47.606;7.576;2023-12-20T08:20:01;2.00;;;1.80;;
10586;SDS011;5341;47.606;7.576;2023-12-20T08:22:30;1.95;;;1.83;;
10586;SDS011;5341;47.606;7.576;2023-12-20T08:24:59;2.25;;;2.05;;
10586;SDS011;5341;47.606;7.576;2023-12-20T08:27:26;2.28;;;2.08;;
10586;SDS011;5341;47.606;7.576;2023-12-20T08:29:54;4.43;;;2.10;;
10586;SDS011;5341;47.606;7.576;2023-12-20T08:32:21;3.22;;;2.20;;
10586;SDS011;5341;47.606;7.576;2023-12-20T08:34:48;2.00;;;1.80;;
10586;SDS011;5341;47.606;7.576;2023-12-20T08:37:16;2.35;;;2.15;;
10586;SDS011;5341;47.606;7.576;2023-12-20T08:39:43;2.00;;;1.80;;
10586;SDS011;5341;47.606;7.576;2023-12-20T08:42:13;2.30;;;2.10;;
10586;SDS011;5341;47.606;7.576;2023-12-20T08:44:40;2.00;;;1.80;;
10586;SDS011;5341;47.606;7.576;2023-12-20T08:47:08;2.20;;;2.00;;
10586;SDS011;5341;47.606;7.576;2023-12-20T08:49:38;1.88;;;1.67;;
10586;SDS011;5341;47.606;7.576;2023-12-20T08:52:06;1.90;;;1.80;;
10586;SDS011;5341;47.606;7.576;2023-12-20T08:54:34;2.33;;;2.13;;
10586;SDS011;5341;47.606;7.576;2023-12-20T08:57:01;1.83;;;1.70;;
10586;SDS011;5341;47.606;7.576;2023-12-20T08:59:31;2.55;;;1.90;;
10586;SDS011;5341;47.606;7.576;2023-12-20T09:01:58;2.22;;;1.92;;
10586;SDS011;5341;47.606;7.576;2023-12-20T09:04:26;2.20;;;1.90;;
10586;SDS011;5341;47.606;7.576;2023-12-20T09:06:53;1.80;;;1.70;;
10586;SDS011;5341;47.606;7.576;2023-12-20T09:09:20;2.47;;;2.00;;
10586;SDS011;5341;47.606;7.576;2023-12-20T09:11:48;2.33;;;2.13;;
10586;SDS011;5341;47.606;7.576;2023-12-20T09:14:16;2.33;;;2.13;;
10586;SDS011;5341;47.606;7.576;2023-12-20T09:16:46;2.35;;;2.15;;
10586;SDS011;5341;47.606;7.576;2023-12-20T09:19:13;2.22;;;2.03;;
10586;SDS011;5341;47.606;7.576;2023-12-20T09:21:41;3.75;;;2.28;;
10586;SDS011;5341;47.606;7.576;2023-12-20T09:24:07;2.85;;;2.15;;
10586;SDS011;5341;47.606;7.576;2023-12-20T09:26:35;2.90;;;2.35;;
10586;SDS011;5341;47.606;7.576;2023-12-20T09:29:02;2.80;;;2.20;;
10586;SDS011;5341;47.606;7.576;2023-12-20T09:31:33;2.60;;;2.40;;
10586;SDS011;5341;47.606;7.576;2023-12-20T09:34:04;2.80;;;2.35;;
10586;SDS011;5341;47.606;7.576;2023-12-20T09:36:32;2.85;;;2.63;;
10586;SDS011;5341;47.606;7.576;2023-12-20T09:39:01;3.05;;;2.75;;
10586;SDS011;5341;47.606;7.576;2023-12-20T09:41:29;3.72;;;2.55;;
10586;SDS011;5341;47.606;7.576;2023-12-20T09:44:02;2.78;;;2.58;;
10586;SDS011;5341;47.606;7.576;2023-12-20T09:46:30;3.15;;;2.75;;
10586;SDS011;5341;47.606;7.576;2023-12-20T09:49:02;5.18;;;3.00;;
10586;SDS011;5341;47.606;7.576;2023-12-20T09:51:32;2.70;;;2.50;;
10586;SDS011;5341;47.606;7.576;2023-12-20T09:54:00;2.97;;;2.67;;
10586;SDS011;5341;47.606;7.576;2023-12-20T09:56:30;2.92;;;2.60;;
10586;SDS011;5341;47.606;7.576;2023-12-20T09:58:59;2.95;;;2.30;;
10586;SDS011;5341;47.606;7.576;2023-12-20T10:01:28;4.13;;;2.63;;
10586;SDS011;5341;47.606;7.576;2023-12-20T10:03:57;2.95;;;2.42;;
10586;SDS011;5341;47.606;7.576;2023-12-20T10:06:27;2.55;;;2.35;;
10586;SDS011;5341;47.606;7.576;2023-12-20T10:08:56;2.60;;;2.40;;
10586;SDS011;5341;47.606;7.576;2023-12-20T10:11:25;2.40;;;2.20;;
10586;SDS011;5341;47.606;7.576;2023-12-20T10:13:58;2.85;;;2.58;;
10586;SDS011;5341;47.606;7.576;2023-12-20T10:16:27;3.10;;;2.50;;
10586;SDS011;5341;47.606;7.576;2023-12-20T10:18:56;4.28;;;2.42;;
10586;SDS011;5341;47.606;7.576;2023-12-20T10:21:24;5.78;;;3.28;;
10586;SDS011;5341;47.606;7.576;2023-12-20T10:23:53;5.15;;;2.53;;
10586;SDS011;5341;47.606;7.576;2023-12-20T10:26:24;3.85;;;2.75;;
10586;SDS011;5341;47.606;7.576;2023-12-20T10:28:53;4.45;;;2.60;;
10586;SDS011;5341;47.606;7.576;2023-12-20T10:31:26;4.05;;;2.40;;
10586;SDS011;5341;47.606;7.576;2023-12-20T10:33:55;2.85;;;2.53;;
10586;SDS011;5341;47.606;7.576;2023-12-20T10:36:23;3.20;;;2.70;;
10586;SDS011;5341;47.606;7.576;2023-12-20T10:38:52;3.47;;;2.38;;
10586;SDS011;5341;47.606;7.576;2023-12-20T10:41:23;2.70;;;2.50;;
10586;SDS011;5341;47.606;7.576;2023-12-20T10:43:58;3.33;;;2.55;;
10586;SDS011;5341;47.606;7.576;2023-12-20T10:46:27;3.10;;;2.33;;
10586;SDS011;5341;47.606;7.576;2023-12-20T10:48:56;4.55;;;2.55;;
10586;SDS011;5341;47.606;7.576;2023-12-20T10:51:24;4.75;;;2.63;;
10586;SDS011;5341;47.606;7.576;2023-12-20T10:53:54;4.05;;;2.45;;
10586;SDS011;5341;47.606;7.576;2023-12-20T10:56:22;3.78;;;2.80;;
10586;SDS011;5341;47.606;7.576;2023-12-20T10:58:52;3.78;;;2.45;;
10586;SDS011;5341;47.606;7.576;2023-12-20T11:01:21;3.95;;;2.70;;
10586;SDS011;5341;47.606;7.576;2023-12-20T11:03:50;6.50;;;3.00;;
10586;SDS011;5341;47.606;7.576;2023-12-20T11:06:20;2.72;;;2.40;;
10586;SDS011;5341;47.606;7.576;2023-12-20T11:08:59;4.40;;;2.58;;
10586;SDS011;5341;47.606;7.576;2023-12-20T11:11:40;3.88;;;3.03;;
10586;SDS011;5341;47.606;7.576;2023-12-20T11:14:20;4.18;;;3.10;;
10586;SDS011;5341;47.606;7.576;2023-12-20T11:17:04;5.20;;;3.13;;
10586;SDS011;5341;47.606;7.576;2023-12-20T11:19:34;7.97;;;3.20;;
10586;SDS011;5341;47.606;7.576;2023-12-20T11:22:04;6.25;;;3.33;;
10586;SDS011;5341;47.606;7.576;2023-12-20T11:24:33;5.28;;;3.20;;
10586;SDS011;5341;47.606;7.576;2023-12-20T11:27:03;6.68;;;3.30;;
10586;SDS011;5341;47.606;7.576;2023-12-20T11:29:33;6.63;;;3.63;;
10586;SDS011;5341;47.606;7.576;2023-12-20T11:32:02;4.32;;;2.92;;
10586;SDS011;5341;47.606;7.576;2023-12-20T11:34:51;5.93;;;3.28;;
10586;SDS011;5341;47.606;7.576;2023-12-20T11:37:20;4.85;;;3.47;;
10586;SDS011;5341;47.606;7.576;2023-12-20T11:39:53;6.80;;;3.22;;
10586;SDS011;5341;47.606;7.576;2023-12-20T11:42:21;5.22;;;3.55;;
10586;SDS011;5341;47.606;7.576;2023-12-20T11:44:50;5.63;;;3.50;;
10586;SDS011;5341;47.606;7.576;2023-12-20T11:47:18;4.88;;;3.10;;
10586;SDS011;5341;47.606;7.576;2023-12-20T11:49:46;5.68;;;2.95;;
10586;SDS011;5341;47.606;7.576;2023-12-20T11:52:14;4.63;;;3.20;;
10586;SDS011;5341;47.606;7.576;2023-12-20T11:54:43;4.18;;;3.20;;
10586;SDS011;5341;47.606;7.576;2023-12-20T11:57:11;5.07;;;3.45;;
10586;SDS011;5341;47.606;7.576;2023-12-20T11:59:38;4.55;;;2.95;;
10586;SDS011;5341;47.606;7.576;2023-12-20T12:02:08;3.22;;;2.47;;
10586;SDS011;5341;47.606;7.576;2023-12-20T12:04:41;6.07;;;2.90;;
10586;SDS011;5341;47.606;7.576;2023-12-20T12:07:08;2.88;;;2.22;;
10586;SDS011;5341;47.606;7.576;2023-12-20T12:09:36;5.47;;;2.20;;
10586;SDS011;5341;47.606;7.576;2023-12-20T12:12:04;3.92;;;2.15;;
10586;SDS011;5341;47.606;7.576;2023-12-20T12:14:33;5.32;;;2.20;;
10586;SDS011;5341;47.606;7.576;2023-12-20T12:17:02;3.63;;;2.35;;
10586;SDS011;5341;47.606;7.576;2023-12-20T12:19:32;4.90;;;2.13;;
10586;SDS011;5341;47.606;7.576;2023-12-20T12:22:06;5.32;;;1.90;;
10586;SDS011;5341;47.606;7.576;2023-12-20T12:24:36;5.80;;;2.90;;
10586;SDS011;5341;47.606;7.576;2023-12-20T12:27:05;4.60;;;2.38;;
10586;SDS011;5341;47.606;7.576;2023-12-20T12:29:33;5.20;;;2.10;;
10586;SDS011;5341;47.606;7.576;2023-12-20T12:32:01;4.47;;;1.95;;
10586;SDS011;5341;47.606;7.576;2023-12-20T12:34:35;3.97;;;2.30;;
10586;SDS011;5341;47.606;7.576;2023-12-20T12:37:05;4.25;;;2.17;;
10586;SDS011;5341;47.606;7.576;2023-12-20T12:39:34;3.80;;;2.20;;
10586;SDS011;5341;47.606;7.576;2023-12-20T12:42:01;5.30;;;2.22;;
10586;SDS011;5341;47.606;7.576;2023-12-20T12:44:29;5.20;;;2.13;;
10586;SDS011;5341;47.606;7.576;2023-12-20T12:46:57;4.47;;;2.22;;
10586;SDS011;5341;47.606;7.576;2023-12-20T12:49:24;5.68;;;2.33;;
10586;SDS011;5341;47.606;7.576;2023-12-20T12:51:53;7.95;;;2.20;;
10586;SDS011;5341;47.606;7.576;2023-12-20T12:54:23;5.00;;;2.28;;
10586;SDS011;5341;47.606;7.576;2023-12-20T12:56:51;9.48;;;2.50;;
10586;SDS011;5341;47.606;7.576;2023-12-20T12:59:18;6.85;;;2.60;;
10586;SDS011;5341;47.606;7.576;2023-12-20T13:01:46;6.03;;;2.45;;
10586;SDS011;5341;47.606;7.576;2023-12-20T13:04:14;5.38;;;2.17;;
10586;SDS011;5341;47.606;7.576;2023-12-20T13:06:41;6.82;;;2.20;;
10586;SDS011;5341;47.606;7.576;2023-12-20T13:09:11;7.75;;;2.33;;
10586;SDS011;5341;47.606;7.576;2023-12-20T13:11:39;8.55;;;2.35;;
10586;SDS011;5341;47.606;7.576;2023-12-20T13:14:07;4.82;;;2.20;;
10586;SDS011;5341;47.606;7.576;2023-12-20T13:16:39;4.68;;;2.20;;
10586;SDS011;5341;47.606;7.576;2023-12-20T13:19:07;4.88;;;1.95;;
10586;SDS011;5341;47.606;7.576;2023-12-20T13:21:36;4.40;;;2.00;;
10586;SDS011;5341;47.606;7.576;2023-12-20T13:24:05;4.93;;;2.20;;
10586;SDS011;5341;47.606;7.576;2023-12-20T13:26:34;4.75;;;2.22;;
10586;SDS011;5341;47.606;7.576;2023-12-20T13:29:02;6.38;;;1.92;;
10586;SDS011;5341;47.606;7.576;2023-12-20T13:31:30;5.20;;;2.08;;
10586;SDS011;5341;47.606;7.576;2023-12-20T13:33:57;6.30;;;2.20;;
10586;SDS011;5341;47.606;7.576;2023-12-20T13:36:26;4.63;;;2.17;;
10586;SDS011;5341;47.606;7.576;2023-12-20T13:38:53;5.97;;;2.22;;
10586;SDS011;5341;47.606;7.576;2023-12-20T13:41:21;5.72;;;2.08;;
10586;SDS011;5341;47.606;7.576;2023-12-20T13:43:50;6.15;;;2.55;;
10586;SDS011;5341;47.606;7.576;2023-12-20T13:46:18;5.90;;;2.30;;
10586;SDS011;5341;47.606;7.576;2023-12-20T13:48:53;4.75;;;1.80;;
10586;SDS011;5341;47.606;7.576;2023-12-20T13:51:20;4.43;;;1.73;;
10586;SDS011;5341;47.606;7.576;2023-12-20T13:53:48;5.07;;;2.13;;
10586;SDS011;5341;47.606;7.576;2023-12-20T13:56:16;6.15;;;2.08;;
10586;SDS011;5341;47.606;7.576;2023-12-20T13:58:45;7.65;;;2.22;;
10586;SDS011;5341;47.606;7.576;2023-12-20T14:01:14;6.05;;;2.47;;
10586;SDS011;5341;47.606;7.576;2023-12-20T14:03:42;5.10;;;2.15;;
10586;SDS011;5341;47.606;7.576;2023-12-20T14:06:09;4.40;;;1.92;;
10586;SDS011;5341;47.606;7.576;2023-12-20T14:08:37;6.15;;;2.25;;
10586;SDS011;5341;47.606;7.576;2023-12-20T14:11:04;5.97;;;2.13;;
10586;SDS011;5341;47.606;7.576;2023-12-20T14:13:32;5.88;;;2.25;;
10586;SDS011;5341;47.606;7.576;2023-12-20T14:15:59;6.05;;;1.98;;
10586;SDS011;5341;47.606;7.576;2023-12-20T14:18:30;5.03;;;2.13;;
10586;SDS011;5341;47.606;7.576;2023-12-20T14:20:57;7.28;;;2.63;;
10586;SDS011;5341;47.606;7.576;2023-12-20T14:23:25;5.05;;;2.67;;
10586;SDS011;5341;47.606;7.576;2023-12-20T14:25:52;7.20;;;2.72;;
10586;SDS011;5341;47.606;7.576;2023-12-20T14:28:21;7.40;;;3.20;;
10586;SDS011;5341;47.606;7.576;2023-12-20T14:30:49;7.38;;;3.15;;
10586;SDS011;5341;47.606;7.576;2023-12-20T14:33:17;7.47;;;2.95;;
10586;SDS011;5341;47.606;7.576;2023-12-20T14:35:48;9.38;;;4.00;;
10586;SDS011;5341;47.606;7.576;2023-12-20T14:38:16;25.92;;;11.90;;
10586;SDS011;5341;47.606;7.576;2023-12-20T14:40:43;28.85;;;16.23;;
10586;SDS011;5341;47.606;7.576;2023-12-20T14:43:11;19.75;;;12.07;;
10586;SDS011;5341;47.606;7.576;2023-12-20T14:45:38;16.75;;;10.23;;
10586;SDS011;5341;47.606;7.576;2023-12-20T14:48:06;12.70;;;8.05;;
10586;SDS011;5341;47.606;7.576;2023-12-20T14:50:34;11.93;;;6.38;;
10586;SDS011;5341;47.606;7.576;2023-12-20T14:53:03;9.35;;;6.05;;
10586;SDS011;5341;47.606;7.576;2023-12-20T14:55:31;10.02;;;5.60;;
10586;SDS011;5341;47.606;7.576;2023-12-20T14:57:59;9.93;;;4.60;;
10586;SDS011;5341;47.606;7.576;2023-12-20T15:00:27;6.05;;;3.45;;
10586;SDS011;5341;47.606;7.576;2023-12-20T15:02:55;7.88;;;3.83;;
10586;SDS011;5341;47.606;7.576;2023-12-20T15:05:22;6.75;;;3.40;;